Aviation Digital Data Service (ADDS)

Output produced by METARs form (1242 UTC 16 July 2019)
found at http://www.aviationweather.gov/metar/data/
 
TAF FLMF 161000Z 1612/1718 13010KT 9999 FEW045 
     FM161800 10005KT CAVOK